sensor_id;sensor_type;location;lat;lon;timestamp;P1;durP1;ratioP1;P2;durP2;ratioP2
75167;SDS011;63748;48.088;11.476;2023-03-05T00:00:41;23.55;;;8.35;;
75167;SDS011;63748;48.088;11.476;2023-03-05T00:03:07;22.90;;;9.55;;
75167;SDS011;63748;48.088;11.476;2023-03-05T00:05:33;22.23;;;9.13;;
75167;SDS011;63748;48.088;11.476;2023-03-05T00:08:00;25.13;;;9.32;;
75167;SDS011;63748;48.088;11.476;2023-03-05T00:10:26;19.60;;;8.07;;
75167;SDS011;63748;48.088;11.476;2023-03-05T00:12:52;20.35;;;9.75;;
75167;SDS011;63748;48.088;11.476;2023-03-05T00:15:18;20.77;;;9.73;;
75167;SDS011;63748;48.088;11.476;2023-03-05T00:17:44;20.30;;;8.32;;
75167;SDS011;63748;48.088;11.476;2023-03-05T00:20:10;22.17;;;9.38;;
75167;SDS011;63748;48.088;11.476;2023-03-05T00:22:36;19.15;;;7.75;;
75167;SDS011;63748;48.088;11.476;2023-03-05T00:25:03;22.60;;;8.88;;
75167;SDS011;63748;48.088;11.476;2023-03-05T00:27:29;20.52;;;8.57;;
75167;SDS011;63748;48.088;11.476;2023-03-05T00:29:55;25.08;;;10.05;;
75167;SDS011;63748;48.088;11.476;2023-03-05T00:32:21;18.35;;;9.15;;
75167;SDS011;63748;48.088;11.476;2023-03-05T00:34:47;23.92;;;9.82;;
75167;SDS011;63748;48.088;11.476;2023-03-05T00:37:14;23.05;;;8.52;;
75167;SDS011;63748;48.088;11.476;2023-03-05T00:39:40;21.38;;;8.57;;
75167;SDS011;63748;48.088;11.476;2023-03-05T00:42:06;19.27;;;8.80;;
75167;SDS011;63748;48.088;11.476;2023-03-05T00:44:32;29.45;;;10.10;;
75167;SDS011;63748;48.088;11.476;2023-03-05T00:46:58;24.67;;;9.63;;
75167;SDS011;63748;48.088;11.476;2023-03-05T00:49:24;21.85;;;9.40;;
75167;SDS011;63748;48.088;11.476;2023-03-05T00:51:50;21.58;;;7.70;;
75167;SDS011;63748;48.088;11.476;2023-03-05T00:54:17;20.00;;;8.73;;
75167;SDS011;63748;48.088;11.476;2023-03-05T00:56:43;22.10;;;9.13;;
75167;SDS011;63748;48.088;11.476;2023-03-05T00:59:09;19.73;;;8.27;;
75167;SDS011;63748;48.088;11.476;2023-03-05T01:01:35;20.85;;;8.95;;
75167;SDS011;63748;48.088;11.476;2023-03-05T01:04:01;20.90;;;7.60;;
75167;SDS011;63748;48.088;11.476;2023-03-05T01:06:28;23.60;;;9.23;;
75167;SDS011;63748;48.088;11.476;2023-03-05T01:08:54;23.45;;;10.57;;
75167;SDS011;63748;48.088;11.476;2023-03-05T01:11:21;20.17;;;8.98;;
75167;SDS011;63748;48.088;11.476;2023-03-05T01:13:47;12.77;;;6.00;;
75167;SDS011;63748;48.088;11.476;2023-03-05T01:16:13;17.55;;;7.22;;
75167;SDS011;63748;48.088;11.476;2023-03-05T01:18:39;22.63;;;9.57;;
75167;SDS011;63748;48.088;11.476;2023-03-05T01:21:06;20.58;;;8.02;;
75167;SDS011;63748;48.088;11.476;2023-03-05T01:23:32;21.55;;;7.68;;
75167;SDS011;63748;48.088;11.476;2023-03-05T01:25:59;17.83;;;7.88;;
75167;SDS011;63748;48.088;11.476;2023-03-05T01:28:25;21.77;;;8.25;;
75167;SDS011;63748;48.088;11.476;2023-03-05T01:30:51;23.10;;;8.93;;
75167;SDS011;63748;48.088;11.476;2023-03-05T01:33:18;21.77;;;8.18;;
75167;SDS011;63748;48.088;11.476;2023-03-05T01:35:47;18.63;;;7.35;;
75167;SDS011;63748;48.088;11.476;2023-03-05T01:38:13;26.83;;;9.55;;
75167;SDS011;63748;48.088;11.476;2023-03-05T01:40:40;20.95;;;7.97;;
75167;SDS011;63748;48.088;11.476;2023-03-05T01:45:36;25.80;;;9.13;;
75167;SDS011;63748;48.088;11.476;2023-03-05T01:48:02;20.60;;;7.68;;
75167;SDS011;63748;48.088;11.476;2023-03-05T01:50:29;18.35;;;8.02;;
75167;SDS011;63748;48.088;11.476;2023-03-05T01:52:57;20.13;;;8.57;;
75167;SDS011;63748;48.088;11.476;2023-03-05T01:55:24;20.77;;;8.48;;
75167;SDS011;63748;48.088;11.476;2023-03-05T02:00:21;24.00;;;9.48;;
75167;SDS011;63748;48.088;11.476;2023-03-05T02:02:49;23.27;;;8.07;;
75167;SDS011;63748;48.088;11.476;2023-03-05T02:05:21;23.15;;;7.85;;
75167;SDS011;63748;48.088;11.476;2023-03-05T02:07:52;17.48;;;7.63;;
75167;SDS011;63748;48.088;11.476;2023-03-05T02:10:19;22.35;;;8.07;;
75167;SDS011;63748;48.088;11.476;2023-03-05T02:12:46;19.70;;;8.23;;
75167;SDS011;63748;48.088;11.476;2023-03-05T02:15:12;16.67;;;7.38;;
75167;SDS011;63748;48.088;11.476;2023-03-05T02:17:38;20.75;;;8.45;;
75167;SDS011;63748;48.088;11.476;2023-03-05T02:20:16;21.17;;;8.15;;
75167;SDS011;63748;48.088;11.476;2023-03-05T02:22:42;25.58;;;9.43;;
75167;SDS011;63748;48.088;11.476;2023-03-05T02:25:12;23.95;;;8.98;;
75167;SDS011;63748;48.088;11.476;2023-03-05T02:27:38;22.17;;;8.30;;
75167;SDS011;63748;48.088;11.476;2023-03-05T02:30:05;19.65;;;7.78;;
75167;SDS011;63748;48.088;11.476;2023-03-05T02:32:31;20.73;;;8.02;;
75167;SDS011;63748;48.088;11.476;2023-03-05T02:34:57;21.20;;;9.00;;
75167;SDS011;63748;48.088;11.476;2023-03-05T02:37:23;27.05;;;9.88;;
75167;SDS011;63748;48.088;11.476;2023-03-05T02:39:49;22.25;;;8.48;;
75167;SDS011;63748;48.088;11.476;2023-03-05T02:42:15;21.50;;;9.02;;
75167;SDS011;63748;48.088;11.476;2023-03-05T02:44:41;18.02;;;8.38;;
75167;SDS011;63748;48.088;11.476;2023-03-05T02:47:07;19.52;;;8.30;;
75167;SDS011;63748;48.088;11.476;2023-03-05T02:49:33;18.92;;;8.35;;
75167;SDS011;63748;48.088;11.476;2023-03-05T02:51:59;20.25;;;8.25;;
75167;SDS011;63748;48.088;11.476;2023-03-05T02:54:26;22.10;;;8.95;;
75167;SDS011;63748;48.088;11.476;2023-03-05T02:56:52;19.95;;;8.82;;
75167;SDS011;63748;48.088;11.476;2023-03-05T02:59:18;23.15;;;9.25;;
75167;SDS011;63748;48.088;11.476;2023-03-05T03:01:44;18.00;;;8.93;;
75167;SDS011;63748;48.088;11.476;2023-03-05T03:04:10;21.45;;;9.00;;
75167;SDS011;63748;48.088;11.476;2023-03-05T03:06:36;19.02;;;8.75;;
75167;SDS011;63748;48.088;11.476;2023-03-05T03:09:02;23.60;;;7.88;;
75167;SDS011;63748;48.088;11.476;2023-03-05T03:11:28;20.67;;;8.05;;
75167;SDS011;63748;48.088;11.476;2023-03-05T03:13:54;26.33;;;10.02;;
75167;SDS011;63748;48.088;11.476;2023-03-05T03:16:20;15.38;;;7.15;;
75167;SDS011;63748;48.088;11.476;2023-03-05T03:18:46;22.90;;;8.90;;
75167;SDS011;63748;48.088;11.476;2023-03-05T03:21:20;21.60;;;8.75;;
75167;SDS011;63748;48.088;11.476;2023-03-05T03:23:46;23.75;;;8.70;;
75167;SDS011;63748;48.088;11.476;2023-03-05T03:26:12;25.13;;;10.25;;
75167;SDS011;63748;48.088;11.476;2023-03-05T03:28:38;21.55;;;8.43;;
75167;SDS011;63748;48.088;11.476;2023-03-05T03:31:04;20.88;;;8.60;;
75167;SDS011;63748;48.088;11.476;2023-03-05T03:33:30;25.02;;;8.60;;
75167;SDS011;63748;48.088;11.476;2023-03-05T03:35:58;19.25;;;6.72;;
75167;SDS011;63748;48.088;11.476;2023-03-05T03:38:24;22.73;;;8.75;;
75167;SDS011;63748;48.088;11.476;2023-03-05T03:40:50;22.63;;;9.07;;
75167;SDS011;63748;48.088;11.476;2023-03-05T03:43:16;21.75;;;8.07;;
75167;SDS011;63748;48.088;11.476;2023-03-05T03:45:42;24.10;;;8.45;;
75167;SDS011;63748;48.088;11.476;2023-03-05T03:48:09;25.08;;;9.70;;
75167;SDS011;63748;48.088;11.476;2023-03-05T03:50:39;24.45;;;9.00;;
75167;SDS011;63748;48.088;11.476;2023-03-05T03:53:05;22.58;;;8.82;;
75167;SDS011;63748;48.088;11.476;2023-03-05T03:55:32;24.10;;;9.23;;
75167;SDS011;63748;48.088;11.476;2023-03-05T03:57:58;23.55;;;8.63;;
75167;SDS011;63748;48.088;11.476;2023-03-05T04:00:24;24.27;;;9.40;;
75167;SDS011;63748;48.088;11.476;2023-03-05T04:02:50;23.23;;;8.60;;
75167;SDS011;63748;48.088;11.476;2023-03-05T04:05:16;23.77;;;9.45;;
75167;SDS011;63748;48.088;11.476;2023-03-05T04:07:42;22.58;;;9.45;;
75167;SDS011;63748;48.088;11.476;2023-03-05T04:10:10;19.75;;;6.95;;
75167;SDS011;63748;48.088;11.476;2023-03-05T04:12:36;25.75;;;9.95;;
75167;SDS011;63748;48.088;11.476;2023-03-05T04:15:02;25.67;;;10.23;;
75167;SDS011;63748;48.088;11.476;2023-03-05T04:17:29;16.02;;;6.70;;
75167;SDS011;63748;48.088;11.476;2023-03-05T04:19:55;23.27;;;8.80;;
75167;SDS011;63748;48.088;11.476;2023-03-05T04:22:21;26.90;;;9.80;;
75167;SDS011;63748;48.088;11.476;2023-03-05T04:24:47;21.50;;;8.98;;
75167;SDS011;63748;48.088;11.476;2023-03-05T04:27:14;26.58;;;11.32;;
75167;SDS011;63748;48.088;11.476;2023-03-05T04:29:40;29.63;;;10.43;;
75167;SDS011;63748;48.088;11.476;2023-03-05T04:32:06;20.70;;;8.60;;
75167;SDS011;63748;48.088;11.476;2023-03-05T04:34:32;26.25;;;10.38;;
75167;SDS011;63748;48.088;11.476;2023-03-05T04:36:59;23.75;;;8.75;;
75167;SDS011;63748;48.088;11.476;2023-03-05T04:39:25;23.45;;;9.23;;
75167;SDS011;63748;48.088;11.476;2023-03-05T04:41:51;23.00;;;8.32;;
75167;SDS011;63748;48.088;11.476;2023-03-05T04:44:17;24.17;;;9.95;;
75167;SDS011;63748;48.088;11.476;2023-03-05T04:46:43;23.58;;;10.10;;
75167;SDS011;63748;48.088;11.476;2023-03-05T04:49:10;29.40;;;10.05;;
75167;SDS011;63748;48.088;11.476;2023-03-05T04:51:36;20.67;;;8.80;;
75167;SDS011;63748;48.088;11.476;2023-03-05T04:54:02;22.65;;;9.63;;
75167;SDS011;63748;48.088;11.476;2023-03-05T04:56:28;26.35;;;8.80;;
75167;SDS011;63748;48.088;11.476;2023-03-05T04:58:54;27.17;;;10.52;;
75167;SDS011;63748;48.088;11.476;2023-03-05T05:01:20;21.92;;;8.80;;
75167;SDS011;63748;48.088;11.476;2023-03-05T05:03:46;26.27;;;9.07;;
75167;SDS011;63748;48.088;11.476;2023-03-05T05:06:12;26.90;;;10.18;;
75167;SDS011;63748;48.088;11.476;2023-03-05T05:08:38;28.20;;;10.80;;
75167;SDS011;63748;48.088;11.476;2023-03-05T05:11:05;28.10;;;11.32;;
75167;SDS011;63748;48.088;11.476;2023-03-05T05:13:32;26.67;;;10.15;;
75167;SDS011;63748;48.088;11.476;2023-03-05T05:15:58;24.05;;;9.88;;
75167;SDS011;63748;48.088;11.476;2023-03-05T05:18:24;24.38;;;10.40;;
75167;SDS011;63748;48.088;11.476;2023-03-05T05:20:50;22.38;;;10.57;;
75167;SDS011;63748;48.088;11.476;2023-03-05T05:23:17;29.55;;;10.73;;
75167;SDS011;63748;48.088;11.476;2023-03-05T05:25:43;23.92;;;10.35;;
75167;SDS011;63748;48.088;11.476;2023-03-05T05:28:10;23.83;;;9.82;;
75167;SDS011;63748;48.088;11.476;2023-03-05T05:30:36;23.65;;;9.95;;
75167;SDS011;63748;48.088;11.476;2023-03-05T05:33:02;23.15;;;9.43;;
75167;SDS011;63748;48.088;11.476;2023-03-05T05:35:28;24.25;;;9.98;;
75167;SDS011;63748;48.088;11.476;2023-03-05T05:37:54;23.25;;;9.52;;
75167;SDS011;63748;48.088;11.476;2023-03-05T05:40:20;28.90;;;10.07;;
75167;SDS011;63748;48.088;11.476;2023-03-05T05:42:46;21.00;;;9.10;;
75167;SDS011;63748;48.088;11.476;2023-03-05T05:45:12;25.00;;;9.57;;
75167;SDS011;63748;48.088;11.476;2023-03-05T05:47:38;23.92;;;9.05;;
75167;SDS011;63748;48.088;11.476;2023-03-05T05:50:05;26.55;;;9.73;;
75167;SDS011;63748;48.088;11.476;2023-03-05T05:52:31;22.25;;;8.68;;
75167;SDS011;63748;48.088;11.476;2023-03-05T05:54:58;21.85;;;9.80;;
75167;SDS011;63748;48.088;11.476;2023-03-05T05:57:24;23.48;;;8.75;;
75167;SDS011;63748;48.088;11.476;2023-03-05T05:59:50;24.23;;;8.98;;
75167;SDS011;63748;48.088;11.476;2023-03-05T06:02:16;23.55;;;10.07;;
75167;SDS011;63748;48.088;11.476;2023-03-05T06:04:42;19.77;;;8.73;;
75167;SDS011;63748;48.088;11.476;2023-03-05T06:07:08;23.33;;;8.35;;
75167;SDS011;63748;48.088;11.476;2023-03-05T06:09:34;22.33;;;8.45;;
75167;SDS011;63748;48.088;11.476;2023-03-05T06:12:00;24.58;;;9.68;;
75167;SDS011;63748;48.088;11.476;2023-03-05T06:14:26;20.73;;;8.75;;
75167;SDS011;63748;48.088;11.476;2023-03-05T06:16:52;17.25;;;7.60;;
75167;SDS011;63748;48.088;11.476;2023-03-05T06:19:19;22.10;;;8.98;;
75167;SDS011;63748;48.088;11.476;2023-03-05T06:21:45;18.88;;;7.47;;
75167;SDS011;63748;48.088;11.476;2023-03-05T06:24:11;26.83;;;9.07;;
75167;SDS011;63748;48.088;11.476;2023-03-05T06:26:37;22.77;;;8.15;;
75167;SDS011;63748;48.088;11.476;2023-03-05T06:29:03;24.65;;;9.15;;
75167;SDS011;63748;48.088;11.476;2023-03-05T06:31:29;16.73;;;7.18;;
75167;SDS011;63748;48.088;11.476;2023-03-05T06:33:58;23.80;;;9.68;;
75167;SDS011;63748;48.088;11.476;2023-03-05T06:36:28;23.70;;;8.93;;
75167;SDS011;63748;48.088;11.476;2023-03-05T06:38:54;20.17;;;8.18;;
75167;SDS011;63748;48.088;11.476;2023-03-05T06:41:22;22.70;;;8.65;;
75167;SDS011;63748;48.088;11.476;2023-03-05T06:43:48;25.90;;;9.30;;
75167;SDS011;63748;48.088;11.476;2023-03-05T06:48:41;22.77;;;8.32;;
75167;SDS011;63748;48.088;11.476;2023-03-05T06:53:39;23.15;;;8.48;;
75167;SDS011;63748;48.088;11.476;2023-03-05T06:56:05;22.63;;;8.82;;
75167;SDS011;63748;48.088;11.476;2023-03-05T06:58:31;21.48;;;7.95;;
75167;SDS011;63748;48.088;11.476;2023-03-05T07:00:57;21.52;;;9.38;;
75167;SDS011;63748;48.088;11.476;2023-03-05T07:03:23;17.25;;;7.03;;
75167;SDS011;63748;48.088;11.476;2023-03-05T07:05:49;21.08;;;9.18;;
75167;SDS011;63748;48.088;11.476;2023-03-05T07:08:15;18.33;;;8.15;;
75167;SDS011;63748;48.088;11.476;2023-03-05T07:10:42;18.60;;;8.43;;
75167;SDS011;63748;48.088;11.476;2023-03-05T07:13:08;24.30;;;9.80;;
75167;SDS011;63748;48.088;11.476;2023-03-05T07:15:36;18.08;;;8.15;;
75167;SDS011;63748;48.088;11.476;2023-03-05T07:18:03;17.38;;;7.55;;
75167;SDS011;63748;48.088;11.476;2023-03-05T07:20:29;21.02;;;9.40;;
75167;SDS011;63748;48.088;11.476;2023-03-05T07:22:55;18.17;;;7.90;;
75167;SDS011;63748;48.088;11.476;2023-03-05T07:25:21;19.38;;;7.82;;
75167;SDS011;63748;48.088;11.476;2023-03-05T07:27:48;21.77;;;8.55;;
75167;SDS011;63748;48.088;11.476;2023-03-05T07:30:15;18.58;;;7.28;;
75167;SDS011;63748;48.088;11.476;2023-03-05T07:32:41;20.70;;;8.75;;
75167;SDS011;63748;48.088;11.476;2023-03-05T07:35:07;19.63;;;8.05;;
75167;SDS011;63748;48.088;11.476;2023-03-05T07:37:33;17.92;;;7.25;;
75167;SDS011;63748;48.088;11.476;2023-03-05T07:39:59;19.73;;;6.53;;
75167;SDS011;63748;48.088;11.476;2023-03-05T07:42:25;22.35;;;8.35;;
75167;SDS011;63748;48.088;11.476;2023-03-05T07:44:51;20.30;;;8.30;;
75167;SDS011;63748;48.088;11.476;2023-03-05T07:47:18;18.42;;;6.85;;
75167;SDS011;63748;48.088;11.476;2023-03-05T07:49:44;23.52;;;8.65;;
75167;SDS011;63748;48.088;11.476;2023-03-05T07:52:10;17.20;;;6.93;;
75167;SDS011;63748;48.088;11.476;2023-03-05T07:54:39;20.85;;;8.65;;
75167;SDS011;63748;48.088;11.476;2023-03-05T07:57:06;22.20;;;8.02;;
75167;SDS011;63748;48.088;11.476;2023-03-05T07:59:32;17.85;;;7.40;;
75167;SDS011;63748;48.088;11.476;2023-03-05T08:01:59;17.38;;;6.55;;
75167;SDS011;63748;48.088;11.476;2023-03-05T08:04:25;17.77;;;7.25;;
75167;SDS011;63748;48.088;11.476;2023-03-05T08:06:51;14.52;;;6.47;;
75167;SDS011;63748;48.088;11.476;2023-03-05T08:09:17;24.70;;;8.80;;
75167;SDS011;63748;48.088;11.476;2023-03-05T08:11:44;23.45;;;8.68;;
75167;SDS011;63748;48.088;11.476;2023-03-05T08:14:10;17.60;;;7.63;;
75167;SDS011;63748;48.088;11.476;2023-03-05T08:16:37;18.38;;;7.80;;
75167;SDS011;63748;48.088;11.476;2023-03-05T08:19:04;21.58;;;7.78;;
75167;SDS011;63748;48.088;11.476;2023-03-05T08:21:31;16.38;;;7.25;;
75167;SDS011;63748;48.088;11.476;2023-03-05T08:23:58;20.13;;;7.13;;
75167;SDS011;63748;48.088;11.476;2023-03-05T08:26:25;19.65;;;7.57;;
75167;SDS011;63748;48.088;11.476;2023-03-05T08:28:51;19.40;;;7.72;;
75167;SDS011;63748;48.088;11.476;2023-03-05T08:31:19;18.77;;;7.13;;
75167;SDS011;63748;48.088;11.476;2023-03-05T08:36:12;23.17;;;7.53;;
75167;SDS011;63748;48.088;11.476;2023-03-05T08:38:38;22.33;;;7.80;;
75167;SDS011;63748;48.088;11.476;2023-03-05T08:41:04;19.58;;;7.15;;
75167;SDS011;63748;48.088;11.476;2023-03-05T08:43:30;19.95;;;7.68;;
75167;SDS011;63748;48.088;11.476;2023-03-05T08:45:58;17.88;;;6.72;;
75167;SDS011;63748;48.088;11.476;2023-03-05T08:48:24;17.98;;;7.78;;
75167;SDS011;63748;48.088;11.476;2023-03-05T08:50:50;21.67;;;7.70;;
75167;SDS011;63748;48.088;11.476;2023-03-05T08:53:17;20.63;;;7.32;;
75167;SDS011;63748;48.088;11.476;2023-03-05T08:55:43;20.25;;;7.57;;
75167;SDS011;63748;48.088;11.476;2023-03-05T08:58:09;18.88;;;6.80;;
75167;SDS011;63748;48.088;11.476;2023-03-05T09:00:35;19.23;;;7.15;;
75167;SDS011;63748;48.088;11.476;2023-03-05T09:03:01;19.38;;;7.30;;
75167;SDS011;63748;48.088;11.476;2023-03-05T09:05:27;20.25;;;8.55;;
75167;SDS011;63748;48.088;11.476;2023-03-05T09:07:53;18.98;;;7.25;;
75167;SDS011;63748;48.088;11.476;2023-03-05T09:10:19;20.08;;;7.18;;
75167;SDS011;63748;48.088;11.476;2023-03-05T09:12:45;19.02;;;7.68;;
75167;SDS011;63748;48.088;11.476;2023-03-05T09:15:13;17.83;;;7.55;;
75167;SDS011;63748;48.088;11.476;2023-03-05T09:17:39;19.38;;;7.78;;
75167;SDS011;63748;48.088;11.476;2023-03-05T09:20:06;19.08;;;7.00;;
75167;SDS011;63748;48.088;11.476;2023-03-05T09:22:32;21.63;;;9.55;;
75167;SDS011;63748;48.088;11.476;2023-03-05T09:24:58;20.48;;;9.02;;
75167;SDS011;63748;48.088;11.476;2023-03-05T09:27:24;19.38;;;7.07;;
75167;SDS011;63748;48.088;11.476;2023-03-05T09:29:50;19.35;;;7.38;;
75167;SDS011;63748;48.088;11.476;2023-03-05T09:32:17;21.50;;;8.02;;
75167;SDS011;63748;48.088;11.476;2023-03-05T09:34:43;24.13;;;8.10;;
75167;SDS011;63748;48.088;11.476;2023-03-05T09:37:09;17.52;;;7.63;;
75167;SDS011;63748;48.088;11.476;2023-03-05T09:39:35;21.48;;;9.05;;
75167;SDS011;63748;48.088;11.476;2023-03-05T09:44:41;16.85;;;6.90;;
75167;SDS011;63748;48.088;11.476;2023-03-05T09:47:15;17.80;;;7.30;;
75167;SDS011;63748;48.088;11.476;2023-03-05T09:52:20;16.83;;;7.32;;
75167;SDS011;63748;48.088;11.476;2023-03-05T09:54:47;18.20;;;8.10;;
75167;SDS011;63748;48.088;11.476;2023-03-05T09:57:16;20.40;;;9.05;;
75167;SDS011;63748;48.088;11.476;2023-03-05T09:59:50;16.95;;;5.65;;
75167;SDS011;63748;48.088;11.476;2023-03-05T10:07:18;20.52;;;7.68;;
75167;SDS011;63748;48.088;11.476;2023-03-05T10:09:56;24.85;;;8.45;;
75167;SDS011;63748;48.088;11.476;2023-03-05T10:15:24;17.85;;;7.82;;
75167;SDS011;63748;48.088;11.476;2023-03-05T10:20:40;21.77;;;8.93;;
75167;SDS011;63748;48.088;11.476;2023-03-05T10:23:18;21.92;;;8.35;;
75167;SDS011;63748;48.088;11.476;2023-03-05T10:25:51;22.42;;;7.80;;
75167;SDS011;63748;48.088;11.476;2023-03-05T10:34:16;24.85;;;7.53;;
75167;SDS011;63748;48.088;11.476;2023-03-05T10:46:52;23.25;;;8.10;;
75167;SDS011;63748;48.088;11.476;2023-03-05T10:49:24;22.45;;;10.00;;
75167;SDS011;63748;48.088;11.476;2023-03-05T10:51:53;17.17;;;7.97;;
75167;SDS011;63748;48.088;11.476;2023-03-05T10:54:25;28.45;;;9.40;;
75167;SDS011;63748;48.088;11.476;2023-03-05T10:57:29;17.83;;;7.90;;
75167;SDS011;63748;48.088;11.476;2023-03-05T11:02:22;18.67;;;8.55;;
75167;SDS011;63748;48.088;11.476;2023-03-05T11:04:50;23.10;;;8.15;;
75167;SDS011;63748;48.088;11.476;2023-03-05T11:09:44;20.95;;;9.30;;
75167;SDS011;63748;48.088;11.476;2023-03-05T11:12:29;24.67;;;8.88;;
75167;SDS011;63748;48.088;11.476;2023-03-05T11:15:18;20.73;;;7.95;;
75167;SDS011;63748;48.088;11.476;2023-03-05T11:17:47;19.73;;;8.40;;
75167;SDS011;63748;48.088;11.476;2023-03-05T11:23:04;18.67;;;7.95;;
75167;SDS011;63748;48.088;11.476;2023-03-05T11:25:32;20.05;;;8.43;;
75167;SDS011;63748;48.088;11.476;2023-03-05T11:27:59;23.77;;;7.78;;
75167;SDS011;63748;48.088;11.476;2023-03-05T11:30:27;23.38;;;8.98;;
75167;SDS011;63748;48.088;11.476;2023-03-05T11:35:33;22.30;;;8.25;;
75167;SDS011;63748;48.088;11.476;2023-03-05T11:38:00;15.95;;;6.05;;
75167;SDS011;63748;48.088;11.476;2023-03-05T11:40:27;14.05;;;6.85;;
75167;SDS011;63748;48.088;11.476;2023-03-05T11:42:55;19.77;;;7.78;;
75167;SDS011;63748;48.088;11.476;2023-03-05T11:45:23;18.15;;;7.15;;
75167;SDS011;63748;48.088;11.476;2023-03-05T11:47:53;18.85;;;7.95;;
75167;SDS011;63748;48.088;11.476;2023-03-05T11:50:24;17.02;;;7.85;;
75167;SDS011;63748;48.088;11.476;2023-03-05T11:52:51;18.67;;;8.18;;
75167;SDS011;63748;48.088;11.476;2023-03-05T12:00:15;9.35;;;5.60;;
75167;SDS011;63748;48.088;11.476;2023-03-05T12:02:42;19.33;;;8.20;;
75167;SDS011;63748;48.088;11.476;2023-03-05T12:05:13;17.65;;;7.43;;
75167;SDS011;63748;48.088;11.476;2023-03-05T12:07:40;16.65;;;7.47;;
75167;SDS011;63748;48.088;11.476;2023-03-05T12:10:29;14.50;;;6.82;;
75167;SDS011;63748;48.088;11.476;2023-03-05T12:13:11;13.38;;;6.57;;
75167;SDS011;63748;48.088;11.476;2023-03-05T12:18:26;18.08;;;7.03;;
75167;SDS011;63748;48.088;11.476;2023-03-05T12:23:31;21.35;;;8.07;;
75167;SDS011;63748;48.088;11.476;2023-03-05T12:26:08;13.60;;;6.80;;
75167;SDS011;63748;48.088;11.476;2023-03-05T12:33:32;18.15;;;6.80;;
75167;SDS011;63748;48.088;11.476;2023-03-05T12:44:20;13.95;;;5.20;;
75167;SDS011;63748;48.088;11.476;2023-03-05T12:46:42;8.75;;;4.20;;
75167;SDS011;63748;48.088;11.476;2023-03-05T12:51:50;10.30;;;5.10;;
75167;SDS011;63748;48.088;11.476;2023-03-05T12:56:53;12.32;;;4.88;;
75167;SDS011;63748;48.088;11.476;2023-03-05T12:59:21;12.77;;;5.85;;
75167;SDS011;63748;48.088;11.476;2023-03-05T13:04:18;13.68;;;5.43;;
75167;SDS011;63748;48.088;11.476;2023-03-05T13:06:48;12.70;;;4.50;;
75167;SDS011;63748;48.088;11.476;2023-03-05T13:09:26;9.55;;;3.75;;
75167;SDS011;63748;48.088;11.476;2023-03-05T13:11:54;14.48;;;4.90;;
75167;SDS011;63748;48.088;11.476;2023-03-05T13:14:28;13.02;;;5.47;;
75167;SDS011;63748;48.088;11.476;2023-03-05T13:16:54;14.20;;;5.38;;
75167;SDS011;63748;48.088;11.476;2023-03-05T13:19:20;10.73;;;5.18;;
75167;SDS011;63748;48.088;11.476;2023-03-05T13:21:57;12.43;;;5.47;;
75167;SDS011;63748;48.088;11.476;2023-03-05T13:24:23;10.68;;;4.72;;
75167;SDS011;63748;48.088;11.476;2023-03-05T13:26:49;11.43;;;4.82;;
75167;SDS011;63748;48.088;11.476;2023-03-05T13:29:16;6.38;;;2.88;;
75167;SDS011;63748;48.088;11.476;2023-03-05T13:31:43;9.10;;;4.57;;
75167;SDS011;63748;48.088;11.476;2023-03-05T13:34:31;12.50;;;4.82;;
75167;SDS011;63748;48.088;11.476;2023-03-05T13:36:58;12.38;;;4.70;;
75167;SDS011;63748;48.088;11.476;2023-03-05T13:39:26;12.75;;;4.78;;
75167;SDS011;63748;48.088;11.476;2023-03-05T13:42:38;9.50;;;3.95;;
75167;SDS011;63748;48.088;11.476;2023-03-05T13:44:39;6.50;;;3.88;;
75167;SDS011;63748;48.088;11.476;2023-03-05T13:47:15;7.70;;;4.18;;
75167;SDS011;63748;48.088;11.476;2023-03-05T13:49:42;12.48;;;5.47;;
75167;SDS011;63748;48.088;11.476;2023-03-05T13:52:08;10.48;;;4.80;;
75167;SDS011;63748;48.088;11.476;2023-03-05T13:54:35;11.20;;;4.85;;
75167;SDS011;63748;48.088;11.476;2023-03-05T13:57:02;13.98;;;5.45;;
75167;SDS011;63748;48.088;11.476;2023-03-05T13:59:30;12.88;;;5.68;;
75167;SDS011;63748;48.088;11.476;2023-03-05T14:12:21;11.50;;;5.00;;
75167;SDS011;63748;48.088;11.476;2023-03-05T14:14:37;12.77;;;5.40;;
75167;SDS011;63748;48.088;11.476;2023-03-05T14:19:47;13.27;;;4.70;;
75167;SDS011;63748;48.088;11.476;2023-03-05T14:22:30;12.70;;;5.32;;
75167;SDS011;63748;48.088;11.476;2023-03-05T14:24:56;9.52;;;4.25;;
75167;SDS011;63748;48.088;11.476;2023-03-05T14:27:22;15.60;;;5.78;;
75167;SDS011;63748;48.088;11.476;2023-03-05T14:29:49;8.93;;;3.78;;
75167;SDS011;63748;48.088;11.476;2023-03-05T14:32:29;12.02;;;5.07;;
75167;SDS011;63748;48.088;11.476;2023-03-05T14:34:57;10.60;;;4.45;;
75167;SDS011;63748;48.088;11.476;2023-03-05T14:37:33;15.70;;;5.00;;
75167;SDS011;63748;48.088;11.476;2023-03-05T14:45:18;9.25;;;4.22;;
75167;SDS011;63748;48.088;11.476;2023-03-05T14:47:44;12.05;;;5.15;;
75167;SDS011;63748;48.088;11.476;2023-03-05T14:50:18;9.98;;;4.55;;
75167;SDS011;63748;48.088;11.476;2023-03-05T14:52:44;11.38;;;5.18;;
75167;SDS011;63748;48.088;11.476;2023-03-05T14:55:15;13.07;;;4.72;;
75167;SDS011;63748;48.088;11.476;2023-03-05T14:57:41;14.05;;;5.10;;
75167;SDS011;63748;48.088;11.476;2023-03-05T15:00:15;8.00;;;4.32;;
75167;SDS011;63748;48.088;11.476;2023-03-05T15:02:41;12.45;;;4.03;;
75167;SDS011;63748;48.088;11.476;2023-03-05T15:05:07;14.90;;;6.32;;
75167;SDS011;63748;48.088;11.476;2023-03-05T15:07:33;14.70;;;6.05;;
75167;SDS011;63748;48.088;11.476;2023-03-05T15:09:59;12.50;;;5.78;;
75167;SDS011;63748;48.088;11.476;2023-03-05T15:12:25;11.70;;;5.32;;
75167;SDS011;63748;48.088;11.476;2023-03-05T15:14:52;17.23;;;6.50;;
75167;SDS011;63748;48.088;11.476;2023-03-05T15:17:27;12.60;;;5.75;;
75167;SDS011;63748;48.088;11.476;2023-03-05T15:19:55;12.75;;;6.15;;
75167;SDS011;63748;48.088;11.476;2023-03-05T15:22:21;11.45;;;3.85;;
75167;SDS011;63748;48.088;11.476;2023-03-05T15:24:47;14.85;;;6.57;;
75167;SDS011;63748;48.088;11.476;2023-03-05T15:27:13;12.75;;;5.13;;
75167;SDS011;63748;48.088;11.476;2023-03-05T15:29:39;16.00;;;6.43;;
75167;SDS011;63748;48.088;11.476;2023-03-05T15:32:06;15.25;;;6.75;;
75167;SDS011;63748;48.088;11.476;2023-03-05T15:34:32;10.77;;;4.95;;
75167;SDS011;63748;48.088;11.476;2023-03-05T15:36:59;14.27;;;5.00;;
75167;SDS011;63748;48.088;11.476;2023-03-05T15:39:25;11.90;;;5.78;;
75167;SDS011;63748;48.088;11.476;2023-03-05T15:41:51;11.50;;;5.88;;
75167;SDS011;63748;48.088;11.476;2023-03-05T15:44:18;14.32;;;5.95;;
75167;SDS011;63748;48.088;11.476;2023-03-05T15:46:44;13.85;;;5.72;;
75167;SDS011;63748;48.088;11.476;2023-03-05T15:49:11;14.35;;;5.47;;
75167;SDS011;63748;48.088;11.476;2023-03-05T15:51:37;14.90;;;5.85;;
75167;SDS011;63748;48.088;11.476;2023-03-05T15:54:03;16.52;;;6.32;;
75167;SDS011;63748;48.088;11.476;2023-03-05T15:56:29;15.32;;;6.50;;
75167;SDS011;63748;48.088;11.476;2023-03-05T15:58:55;17.65;;;7.30;;
75167;SDS011;63748;48.088;11.476;2023-03-05T16:01:21;15.35;;;6.10;;
75167;SDS011;63748;48.088;11.476;2023-03-05T16:03:48;18.30;;;6.97;;
75167;SDS011;63748;48.088;11.476;2023-03-05T16:06:14;16.27;;;6.82;;